createdAt,value
2022-11-11T00:00:39.173Z,81.75
2022-11-11T00:03:25.733Z,81.25
2022-11-11T00:06:16.414Z,82.19
2022-11-11T00:11:51.175Z,82.27
2022-11-11T00:14:38.085Z,82.91
2022-11-11T00:17:43.154Z,82.56
2022-11-11T00:20:48.175Z,82.73
2022-11-11T00:23:53.645Z,82.89
2022-11-11T00:26:40.739Z,84.05
2022-11-11T00:29:27.388Z,83.78
2022-11-11T00:32:31.413Z,83.50
2022-11-11T00:35:36.164Z,82.06
2022-11-11T00:38:41.837Z,80.95
2022-11-11T00:41:28.564Z,82.22
2022-11-11T00:44:14.995Z,82.60
2022-11-11T00:47:19.892Z,81.98
2022-11-11T00:50:29.421Z,81.85
2022-11-11T00:53:26.276Z,82.77
2022-11-11T00:56:14.274Z,83.53
2022-11-11T00:59:00.525Z,82.92
2022-11-11T01:01:46.822Z,84.17
2022-11-11T01:04:33.275Z,85.07
2022-11-11T01:07:19.636Z,84.63
2022-11-11T01:10:06.808Z,84.57
2022-11-11T01:13:12.813Z,84.46
2022-11-11T01:16:02.395Z,83.72
2022-11-11T01:18:49.656Z,84.62
2022-11-11T01:21:36.235Z,85.93
2022-11-11T01:24:23.266Z,84.86
2022-11-11T01:27:09.814Z,84.03
2022-11-11T01:29:56.418Z,83.03
2022-11-11T01:32:42.967Z,83.69
2022-11-11T01:35:29.366Z,82.79
2022-11-11T01:38:15.702Z,82.85
2022-11-11T01:41:22.840Z,83.30
2022-11-11T01:44:11.930Z,81.86
2022-11-11T01:47:02.844Z,81.95
2022-11-11T01:49:59.042Z,82.50
2022-11-11T01:52:45.925Z,82.57
2022-11-11T01:55:32.817Z,82.89
2022-11-11T01:58:19.980Z,81.88
2022-11-11T02:01:07.175Z,83.35
2022-11-11T02:04:14.054Z,83.72
2022-11-11T02:07:06.099Z,83.87
2022-11-11T02:09:53.458Z,83.89
2022-11-11T02:12:58.691Z,81.71
2022-11-11T02:15:45.825Z,81.63
2022-11-11T02:18:33.670Z,81.03
2022-11-11T02:21:33.416Z,81.16
2022-11-11T02:24:21.340Z,82.13
2022-11-11T02:27:09.564Z,82.37
2022-11-11T02:29:57.212Z,83.21
2022-11-11T02:32:45.402Z,84.93
2022-11-11T02:35:34.760Z,83.30
2022-11-11T02:38:21.254Z,85.82
2022-11-11T02:41:26.606Z,84.92
2022-11-11T02:44:13.110Z,83.11
2022-11-11T02:46:59.437Z,83.87
2022-11-11T02:49:45.874Z,82.64
2022-11-11T02:52:32.400Z,82.71
2022-11-11T02:55:18.772Z,83.68
2022-11-11T02:58:05.209Z,84.26
2022-11-11T03:00:51.559Z,83.59
2022-11-11T03:03:37.896Z,84.98
2022-11-11T03:06:24.734Z,84.93
2022-11-11T03:09:10.922Z,85.03
2022-11-11T03:11:57.832Z,84.67
2022-11-11T03:14:44.388Z,84.86
2022-11-11T03:17:40.103Z,83.45
2022-11-11T03:20:45.566Z,83.23
2022-11-11T03:23:32.012Z,82.92
2022-11-11T03:26:19.702Z,81.20
2022-11-11T03:29:06.414Z,80.40
2022-11-11T03:31:52.553Z,81.44
2022-11-11T03:34:39.223Z,82.41
2022-11-11T03:37:44.006Z,83.98
2022-11-11T03:40:30.535Z,84.04
2022-11-11T03:43:19.186Z,84.44
2022-11-11T03:46:06.395Z,85.06
2022-11-11T03:48:52.624Z,86.03
2022-11-11T03:51:38.744Z,87.92
2022-11-11T03:54:25.096Z,86.84
2022-11-11T03:57:30.158Z,86.55
2022-11-11T04:00:20.313Z,89.06
2022-11-11T04:03:28.626Z,86.04
2022-11-11T04:06:33.663Z,86.36
2022-11-11T04:09:38.577Z,85.18
2022-11-11T04:12:25.384Z,85.84
2022-11-11T04:15:30.455Z,84.98
2022-11-11T04:18:16.876Z,84.32
2022-11-11T04:21:22.167Z,83.18
2022-11-11T04:24:35.416Z,83.28
2022-11-11T04:27:21.924Z,84.45
2022-11-11T04:30:09.066Z,85.80
2022-11-11T04:32:55.826Z,85.94
2022-11-11T04:35:42.171Z,86.54
2022-11-11T04:38:46.945Z,86.54
2022-11-11T04:41:53.882Z,84.89
2022-11-11T04:44:58.918Z,87.90
2022-11-11T04:47:59.376Z,86.02
2022-11-11T04:50:45.799Z,86.33
2022-11-11T04:53:32.344Z,85.76
2022-11-11T04:56:37.454Z,88.20
2022-11-11T04:59:23.864Z,85.27
2022-11-11T05:02:28.997Z,85.67
2022-11-11T05:05:15.654Z,84.36
2022-11-11T05:08:20.866Z,85.58
2022-11-11T05:11:07.715Z,87.01
2022-11-11T05:14:13.850Z,84.99
2022-11-11T05:17:18.856Z,88.24
2022-11-11T05:20:24.081Z,88.51
2022-11-11T05:23:10.606Z,88.67
2022-11-11T05:25:57.137Z,89.06
2022-11-11T05:28:43.474Z,89.64
2022-11-11T05:31:30.589Z,87.24
2022-11-11T05:34:16.974Z,88.36
2022-11-11T05:37:03.797Z,87.10
2022-11-11T05:39:50.233Z,87.03
2022-11-11T05:42:38.040Z,86.08
2022-11-11T05:45:27.650Z,84.02
2022-11-11T05:48:14.228Z,85.27
2022-11-11T05:51:00.846Z,86.62
2022-11-11T05:53:47.347Z,86.37
2022-11-11T05:56:33.785Z,85.61
2022-11-11T05:59:20.639Z,86.15
2022-11-11T06:02:07.056Z,86.52
2022-11-11T06:04:54.505Z,86.07
2022-11-11T06:07:41.159Z,87.12
2022-11-11T06:10:33.554Z,86.83
2022-11-11T06:13:19.725Z,86.34
2022-11-11T06:16:06.619Z,86.87
2022-11-11T06:18:53.276Z,86.70
2022-11-11T06:21:57.677Z,87.29
2022-11-11T06:25:03.783Z,86.85
2022-11-11T06:27:50.315Z,86.39
2022-11-11T06:30:49.535Z,85.35
2022-11-11T06:33:37.965Z,81.95
2022-11-11T06:36:24.324Z,84.01
2022-11-11T06:39:10.823Z,83.73
2022-11-11T06:41:56.956Z,84.27
2022-11-11T06:44:43.244Z,85.85
2022-11-11T06:47:29.715Z,86.78
2022-11-11T06:50:16.377Z,86.40
2022-11-11T06:53:07.822Z,83.49
2022-11-11T06:55:54.165Z,80.07
2022-11-11T06:58:41.085Z,79.86
2022-11-11T07:01:27.638Z,79.68
2022-11-11T07:04:14.169Z,79.56
2022-11-11T07:07:00.432Z,79.95
2022-11-11T07:09:46.438Z,80.92
2022-11-11T07:12:33.076Z,80.62
2022-11-11T07:15:19.135Z,81.01
2022-11-11T07:18:05.984Z,82.28
2022-11-11T07:20:52.475Z,82.04
2022-11-11T07:23:38.633Z,82.58
2022-11-11T07:26:25.056Z,83.29
2022-11-11T07:29:12.788Z,82.66
2022-11-11T07:31:59.016Z,81.69
2022-11-11T07:34:45.402Z,79.92
2022-11-11T07:37:32.266Z,80.94
2022-11-11T07:40:19.626Z,80.26
2022-11-11T07:43:06.015Z,79.40
2022-11-11T07:45:52.559Z,81.84
2022-11-11T07:48:38.863Z,78.58
2022-11-11T07:51:25.573Z,78.68
2022-11-11T07:54:12.066Z,76.83
2022-11-11T07:56:58.603Z,73.53
2022-11-11T07:59:45.147Z,75.55
2022-11-11T08:02:31.842Z,75.21
2022-11-11T08:05:18.318Z,75.34
2022-11-11T08:08:08.955Z,74.33
2022-11-11T08:10:55.796Z,74.98
2022-11-11T08:13:44.133Z,74.92
2022-11-11T08:16:30.716Z,75.43
2022-11-11T08:19:17.324Z,74.69
2022-11-11T08:22:04.815Z,76.47
2022-11-11T08:25:07.002Z,74.39
2022-11-11T08:27:58.423Z,75.61
2022-11-11T08:30:45.139Z,73.46
2022-11-11T08:33:44.404Z,67.42
2022-11-11T08:36:31.214Z,64.10
2022-11-11T08:39:17.803Z,61.96
2022-11-11T08:42:04.407Z,60.43
2022-11-11T08:44:52.107Z,64.22
2022-11-11T08:47:39.357Z,64.81
2022-11-11T08:50:26.522Z,62.61
2022-11-11T08:53:13.456Z,60.35
2022-11-11T08:56:02.900Z,63.31
2022-11-11T08:58:49.905Z,62.45
2022-11-11T09:01:37.041Z,61.14
2022-11-11T09:04:43.756Z,63.86
2022-11-11T09:07:29.973Z,64.01
2022-11-11T09:10:16.389Z,61.76
2022-11-11T09:13:03.120Z,62.53
2022-11-11T09:15:49.608Z,60.89
2022-11-11T09:18:36.901Z,58.73
2022-11-11T09:21:24.719Z,58.84
2022-11-11T09:24:11.757Z,57.10
2022-11-11T09:26:58.746Z,57.07
2022-11-11T09:29:46.068Z,55.80
2022-11-11T09:32:33.347Z,54.88
2022-11-11T09:35:20.620Z,54.41
2022-11-11T09:38:07.274Z,52.73
2022-11-11T09:41:16.797Z,52.55
2022-11-11T09:44:04.623Z,48.75
2022-11-11T09:47:13.462Z,47.39
2022-11-11T09:50:02.865Z,47.10
2022-11-11T09:53:15.634Z,47.47
2022-11-11T09:56:29.761Z,44.61
2022-11-11T09:59:22.037Z,42.32
2022-11-11T10:02:31.746Z,41.76
2022-11-11T10:05:25.950Z,38.73
2022-11-11T10:08:26.395Z,39.92
2022-11-11T10:11:21.635Z,39.22
2022-11-11T10:14:08.173Z,38.26
2022-11-11T10:17:07.876Z,34.68
2022-11-11T10:20:15.856Z,36.90
2022-11-11T10:23:09.004Z,36.83
2022-11-11T10:25:57.095Z,39.11
2022-11-11T10:28:45.625Z,40.81
2022-11-11T10:31:31.856Z,40.84
2022-11-11T10:34:19.577Z,43.31
2022-11-11T10:37:19.268Z,41.01
2022-11-11T10:40:11.146Z,39.80
2022-11-11T10:42:57.460Z,38.00
2022-11-11T10:46:19.196Z,40.34
2022-11-11T10:49:17.934Z,41.29
2022-11-11T10:52:16.629Z,40.27
2022-11-11T10:55:07.738Z,42.80
2022-11-11T10:58:27.747Z,42.30
2022-11-11T11:01:17.411Z,44.19
2022-11-11T11:04:15.105Z,46.71
2022-11-11T11:07:04.230Z,48.15
2022-11-11T11:09:57.365Z,48.62
2022-11-11T11:12:54.150Z,52.61
2022-11-11T11:15:45.193Z,54.48
2022-11-11T11:18:31.967Z,56.20
2022-11-11T11:21:18.324Z,55.40
2022-11-11T11:24:05.352Z,55.61
2022-11-11T11:26:59.613Z,57.16
2022-11-11T11:29:46.225Z,59.09
2022-11-11T11:32:33.211Z,57.68
2022-11-11T11:35:31.846Z,58.87
2022-11-11T11:38:19.302Z,58.13
2022-11-11T11:41:05.719Z,59.25
2022-11-11T11:43:51.931Z,59.61
2022-11-11T11:46:40.043Z,58.67
2022-11-11T11:50:06.753Z,59.56
2022-11-11T11:53:17.505Z,59.07
2022-11-11T11:56:03.838Z,61.80
2022-11-11T11:59:05.994Z,60.51
2022-11-11T12:02:07.924Z,61.00
2022-11-11T12:05:07.963Z,61.36
2022-11-11T12:08:06.858Z,62.58
2022-11-11T12:10:59.077Z,62.78
2022-11-11T12:14:25.277Z,63.71
2022-11-11T12:17:27.008Z,62.18
2022-11-11T12:20:16.795Z,61.95
2022-11-11T12:23:23.941Z,64.41
2022-11-11T12:26:39.675Z,64.01
2022-11-11T12:30:05.997Z,64.07
2022-11-11T12:33:23.094Z,66.33
2022-11-11T12:36:30.515Z,64.93
2022-11-11T12:39:38.807Z,65.11
2022-11-11T12:42:39.899Z,64.96
2022-11-11T12:45:50.188Z,63.47
2022-11-11T12:48:58.305Z,64.97
2022-11-11T12:51:57.335Z,63.78
2022-11-11T12:54:51.647Z,62.29
2022-11-11T12:58:06.315Z,60.89
2022-11-11T13:01:09.831Z,61.17
2022-11-11T13:04:57.165Z,61.63
2022-11-11T13:08:11.017Z,59.76
2022-11-11T13:11:00.137Z,60.40
2022-11-11T13:14:23.974Z,62.01
2022-11-11T13:17:14.028Z,61.60
2022-11-11T13:20:05.807Z,62.76
2022-11-11T13:22:52.626Z,63.36
2022-11-11T13:25:49.458Z,62.01
2022-11-11T13:28:41.346Z,64.41
2022-11-11T13:31:34.584Z,62.33
2022-11-11T13:34:21.963Z,61.32
2022-11-11T13:37:10.903Z,64.36
2022-11-11T13:40:19.594Z,64.08
2022-11-11T13:43:28.024Z,62.55
2022-11-11T13:46:36.086Z,62.23
2022-11-11T13:49:26.627Z,62.75
2022-11-11T13:52:32.913Z,66.74
2022-11-11T13:55:29.575Z,64.68
2022-11-11T13:58:27.994Z,64.97
2022-11-11T14:01:14.440Z,67.09
2022-11-11T14:04:04.516Z,65.40
2022-11-11T14:06:52.954Z,65.64
2022-11-11T14:10:01.297Z,65.85
2022-11-11T14:12:49.853Z,66.46
2022-11-11T14:15:53.327Z,68.52
2022-11-11T14:18:41.609Z,68.81
2022-11-11T14:21:58.609Z,68.64
2022-11-11T14:24:46.900Z,69.40
2022-11-11T14:27:34.127Z,69.36
2022-11-11T14:30:37.943Z,70.82
2022-11-11T14:33:50.221Z,70.34
2022-11-11T14:36:51.985Z,72.14
2022-11-11T14:39:52.426Z,73.39
2022-11-11T14:42:38.974Z,72.39
2022-11-11T14:45:31.368Z,68.71
2022-11-11T14:48:48.488Z,69.36
2022-11-11T14:51:39.715Z,70.00
2022-11-11T14:54:35.707Z,68.88
2022-11-11T14:57:25.465Z,71.04
2022-11-11T15:00:21.066Z,70.50
2022-11-11T15:03:07.627Z,70.80
2022-11-11T15:06:19.555Z,70.91
2022-11-11T15:09:24.732Z,70.05
2022-11-11T15:12:57.436Z,70.46
2022-11-11T15:16:02.695Z,71.33
2022-11-11T15:18:55.056Z,72.29
2022-11-11T15:22:07.544Z,71.68
2022-11-11T15:25:26.352Z,72.02
2022-11-11T15:28:36.028Z,68.50
2022-11-11T15:31:31.946Z,67.91
2022-11-11T15:34:31.458Z,69.98
2022-11-11T15:37:19.645Z,70.49
2022-11-11T15:40:07.029Z,73.63
2022-11-11T15:42:54.117Z,74.76
2022-11-11T15:45:40.484Z,74.73
2022-11-11T15:48:44.277Z,71.25
2022-11-11T15:51:32.329Z,71.15
2022-11-11T15:54:26.610Z,70.94
2022-11-11T15:57:33.154Z,71.34
2022-11-11T16:00:25.587Z,73.91
2022-11-11T16:03:30.887Z,78.09
2022-11-11T16:06:17.487Z,77.75
2022-11-11T16:09:04.456Z,72.50
2022-11-11T16:11:52.216Z,72.98
2022-11-11T16:14:44.122Z,71.30
2022-11-11T16:17:40.737Z,74.87
2022-11-11T16:20:40.920Z,76.08
2022-11-11T16:23:28.201Z,75.31
2022-11-11T16:26:16.017Z,79.65
2022-11-11T16:29:02.828Z,78.75
2022-11-11T16:31:49.168Z,75.15
2022-11-11T16:34:38.496Z,76.89
2022-11-11T16:37:24.975Z,74.14
2022-11-11T16:40:32.556Z,74.95
2022-11-11T16:43:24.948Z,77.58
2022-11-11T16:46:16.425Z,80.09
2022-11-11T16:49:37.825Z,82.94
2022-11-11T16:52:25.383Z,80.93
2022-11-11T16:55:19.327Z,85.59
2022-11-11T16:58:22.822Z,77.43
2022-11-11T17:01:09.523Z,78.00
2022-11-11T17:04:00.397Z,78.49
2022-11-11T17:07:00.103Z,83.46
2022-11-11T17:09:46.437Z,83.20
2022-11-11T17:12:33.122Z,79.62
2022-11-11T17:15:21.336Z,82.93
2022-11-11T17:18:09.409Z,83.87
2022-11-11T17:20:57.038Z,82.95
2022-11-11T17:23:43.457Z,81.98
2022-11-11T17:26:29.848Z,82.89
2022-11-11T17:29:16.326Z,81.44
2022-11-11T17:32:02.735Z,80.28
2022-11-11T17:34:48.968Z,79.78
2022-11-11T17:37:38.403Z,79.80
2022-11-11T17:40:24.858Z,79.70
2022-11-11T17:43:11.205Z,82.85
2022-11-11T17:46:01.425Z,79.75
2022-11-11T17:48:47.667Z,81.88
2022-11-11T17:51:34.535Z,81.08
2022-11-11T17:54:20.856Z,80.10
2022-11-11T17:57:07.307Z,79.36
2022-11-11T17:59:53.678Z,80.80
2022-11-11T18:02:40.228Z,82.29
2022-11-11T18:05:26.596Z,83.79
2022-11-11T18:08:13.217Z,83.79
2022-11-11T18:11:09.106Z,83.28
2022-11-11T18:13:55.875Z,84.30
2022-11-11T18:16:42.197Z,82.88
2022-11-11T18:19:28.685Z,83.66
2022-11-11T18:22:15.095Z,84.94
2022-11-11T18:25:01.731Z,85.31
2022-11-11T18:27:49.155Z,85.58
2022-11-11T18:30:36.298Z,86.04
2022-11-11T18:33:23.266Z,86.34
2022-11-11T18:36:12.474Z,86.10
2022-11-11T18:38:59.159Z,85.68
2022-11-11T18:41:45.486Z,85.92
2022-11-11T18:44:31.754Z,86.78
2022-11-11T18:47:18.256Z,87.75
2022-11-11T18:50:04.882Z,86.72
2022-11-11T18:52:51.414Z,87.32
2022-11-11T18:55:37.735Z,85.59
2022-11-11T18:58:24.033Z,85.57
2022-11-11T19:01:11.510Z,85.94
2022-11-11T19:04:03.051Z,85.98
2022-11-11T19:06:49.907Z,86.53
2022-11-11T19:09:36.355Z,85.33
2022-11-11T19:12:22.725Z,85.92
2022-11-11T19:15:09.898Z,84.48
2022-11-11T19:17:55.958Z,85.68
2022-11-11T19:20:42.424Z,83.06
2022-11-11T19:23:30.414Z,82.84
2022-11-11T19:26:18.004Z,83.51
2022-11-11T19:29:06.159Z,82.56
2022-11-11T19:31:52.636Z,81.24
2022-11-11T19:34:39.672Z,82.42
2022-11-11T19:37:25.763Z,82.75
2022-11-11T19:40:12.656Z,82.13
2022-11-11T19:42:58.926Z,80.15
2022-11-11T19:45:45.665Z,81.33
2022-11-11T19:48:32.275Z,81.67
2022-11-11T19:51:20.954Z,81.94
2022-11-11T19:54:11.162Z,81.96
2022-11-11T19:56:57.516Z,82.34
2022-11-11T19:59:44.133Z,81.99
2022-11-11T20:02:31.586Z,81.38
2022-11-11T20:05:18.513Z,78.98
2022-11-11T20:08:04.893Z,78.93
2022-11-11T20:10:51.596Z,80.29
2022-11-11T20:13:42.456Z,81.33
2022-11-11T20:16:29.239Z,82.07
2022-11-11T20:19:15.583Z,82.76
2022-11-11T20:22:06.142Z,83.50
2022-11-11T20:24:52.654Z,82.79
2022-11-11T20:27:39.245Z,80.66
2022-11-11T20:30:25.643Z,81.76
2022-11-11T20:33:12.345Z,83.13
2022-11-11T20:36:02.853Z,80.28
2022-11-11T20:38:49.006Z,80.38
2022-11-11T20:41:36.366Z,82.12
2022-11-11T20:44:22.615Z,81.94
2022-11-11T20:47:09.333Z,81.81
2022-11-11T20:49:56.213Z,83.10
2022-11-11T20:52:42.684Z,83.55
2022-11-11T20:55:29.343Z,84.71
2022-11-11T20:58:15.789Z,83.22
2022-11-11T21:01:07.165Z,83.47
2022-11-11T21:03:58.249Z,83.00
2022-11-11T21:06:44.606Z,82.59
2022-11-11T21:09:30.944Z,82.87
2022-11-11T21:12:17.649Z,82.86
2022-11-11T21:15:04.294Z,82.78
2022-11-11T21:17:50.717Z,83.08
2022-11-11T21:20:37.127Z,82.56
2022-11-11T21:23:23.762Z,83.75
2022-11-11T21:26:11.045Z,83.98
2022-11-11T21:28:57.576Z,83.64
2022-11-11T21:31:44.736Z,83.41
2022-11-11T21:34:31.323Z,82.81
2022-11-11T21:37:17.507Z,83.23
2022-11-11T21:40:03.908Z,83.38
2022-11-11T21:42:55.234Z,82.96
2022-11-11T21:45:44.269Z,82.31
2022-11-11T21:48:31.074Z,81.03
2022-11-11T21:51:25.914Z,82.73
2022-11-11T21:54:13.936Z,82.43
2022-11-11T21:57:00.352Z,81.58
2022-11-11T21:59:46.563Z,82.71
2022-11-11T22:02:32.807Z,75.19
2022-11-11T22:05:19.087Z,77.12
2022-11-11T22:08:05.866Z,78.24
2022-11-11T22:10:52.352Z,78.35
2022-11-11T22:13:39.353Z,81.57
2022-11-11T22:16:27.925Z,81.78
2022-11-11T22:19:16.182Z,81.34
2022-11-11T22:22:02.348Z,80.86
2022-11-11T22:24:48.616Z,79.84
2022-11-11T22:27:35.368Z,80.31
2022-11-11T22:30:21.792Z,82.86
2022-11-11T22:33:08.045Z,82.23
2022-11-11T22:35:58.457Z,83.10
2022-11-11T22:38:45.259Z,82.85
2022-11-11T22:41:34.175Z,82.96
2022-11-11T22:44:21.355Z,80.97
2022-11-11T22:47:07.585Z,79.64
2022-11-11T22:49:53.878Z,81.63
2022-11-11T22:52:40.208Z,83.61
2022-11-11T22:55:26.577Z,80.95
2022-11-11T22:58:12.844Z,84.94
2022-11-11T23:01:07.685Z,84.62
2022-11-11T23:03:55.587Z,79.90
2022-11-11T23:06:42.428Z,79.06
2022-11-11T23:09:29.256Z,79.90
2022-11-11T23:12:15.517Z,78.80
2022-11-11T23:15:01.875Z,82.22
2022-11-11T23:17:48.434Z,89.11
2022-11-11T23:20:34.786Z,90.72
2022-11-11T23:23:21.287Z,88.89
2022-11-11T23:26:12.993Z,87.98
2022-11-11T23:29:00.093Z,85.28
2022-11-11T23:31:46.815Z,88.95
2022-11-11T23:34:33.134Z,86.63
2022-11-11T23:37:19.379Z,83.99
2022-11-11T23:40:06.924Z,81.04
2022-11-11T23:42:53.256Z,84.79
2022-11-11T23:45:40.096Z,89.05
2022-11-11T23:48:27.616Z,92.51
2022-11-11T23:51:14.327Z,92.00
2022-11-11T23:54:00.885Z,86.57
2022-11-11T23:56:47.407Z,86.07
2022-11-11T23:59:33.815Z,83.54
